Time;durP1;ratioP1;P1;durP2;ratioP2;P2;SDS_P1;SDS_P2;PMS_P1;PMS_P2;Temp;Humidity;BMP_temperature;BMP_pressure;BME280_temperature;BME280_humidity;BME280_pressure;Samples;Min_cycle;Max_cycle;Signal;HPM_P1;HPM_P2
2022/03/04 00:01:46;;;;;;;46.05;28.30;;;;;;;;;;4934145;29;20028;-72
2022/03/04 00:04:13;;;;;;;50.28;30.33;;;;;;;;;;4923953;29;20059;-72
2022/03/04 00:06:39;;;;;;;51.35;30.00;;;;;;;;;;4926758;29;20035;-72
2022/03/04 00:09:05;;;;;;;48.13;29.52;;;;;;;;;;4939336;29;20055;-70
2022/03/04 00:11:32;;;;;;;47.38;28.95;;;;;;;;;;4936293;29;20031;-71
2022/03/04 00:14:00;;;;;;;53.53;30.42;;;;;;;;;;4937416;29;20051;-72
2022/03/04 00:16:27;;;;;;;56.42;32.85;;;;;;;;;;4941448;29;20027;-72
2022/03/04 00:19:09;;;;;;;58.13;32.20;;;;;;;;;;4941579;29;20038;-71
2022/03/04 00:21:41;;;;;;;47.78;30.63;;;;;;;;;;4946776;29;20051;-72
2022/03/04 00:24:08;;;;;;;48.33;28.77;;;;;;;;;;4940890;29;20043;-72
2022/03/04 00:26:35;;;;;;;48.70;28.27;;;;;;;;;;4919693;29;20031;-71
2022/03/04 00:29:01;;;;;;;43.47;26.73;;;;;;;;;;4940621;29;20059;-71
2022/03/04 00:31:27;;;;;;;46.90;26.73;;;;;;;;;;4950990;29;20169;-72
2022/03/04 00:33:53;;;;;;;41.90;26.25;;;;;;;;;;4962758;29;20105;-72
2022/03/04 00:36:23;;;;;;;41.80;25.75;;;;;;;;;;4958761;29;20388;-70
2022/03/04 00:38:50;;;;;;;42.42;26.17;;;;;;;;;;4941457;29;20111;-71
2022/03/04 00:41:20;;;;;;;44.92;26.25;;;;;;;;;;4947407;29;20067;-72
2022/03/04 00:43:47;;;;;;;47.80;27.35;;;;;;;;;;4958177;29;20086;-71
2022/03/04 00:46:13;;;;;;;43.10;26.83;;;;;;;;;;4957739;29;20496;-71
2022/03/04 00:48:40;;;;;;;44.13;25.42;;;;;;;;;;4950122;29;20501;-71
2022/03/04 00:51:07;;;;;;;42.42;25.65;;;;;;;;;;4940393;29;20047;-71
2022/03/04 00:53:34;;;;;;;45.95;26.52;;;;;;;;;;4955436;29;20035;-71
2022/03/04 00:56:00;;;;;;;45.30;26.90;;;;;;;;;;4938206;29;20046;-71
2022/03/04 00:58:26;;;;;;;46.40;27.13;;;;;;;;;;4955833;29;20081;-72
2022/03/04 01:00:54;;;;;;;43.78;27.10;;;;;;;;;;4957294;29;20473;-72
2022/03/04 01:03:20;;;;;;;45.55;27.83;;;;;;;;;;4942884;29;20039;-71
2022/03/04 01:05:46;;;;;;;47.28;28.23;;;;;;;;;;4936001;29;20051;-71
2022/03/04 01:08:12;;;;;;;49.55;28.65;;;;;;;;;;4935560;29;20036;-71
2022/03/04 01:10:39;;;;;;;47.55;28.50;;;;;;;;;;4935940;29;20031;-71
2022/03/04 01:13:05;;;;;;;49.92;27.98;;;;;;;;;;4932793;29;20038;-72
2022/03/04 01:15:31;;;;;;;46.45;27.42;;;;;;;;;;4935638;29;20030;-72
2022/03/04 01:17:57;;;;;;;46.95;27.48;;;;;;;;;;4936030;29;20035;-72
2022/03/04 01:20:23;;;;;;;44.22;26.67;;;;;;;;;;4955256;29;20023;-72
2022/03/04 01:22:49;;;;;;;43.83;26.70;;;;;;;;;;4936509;29;20191;-72
2022/03/04 01:25:16;;;;;;;43.85;27.02;;;;;;;;;;4946175;29;20038;-72
2022/03/04 01:27:43;;;;;;;44.72;26.23;;;;;;;;;;4950346;29;20035;-71
2022/03/04 01:30:10;;;;;;;42.25;25.48;;;;;;;;;;4958778;29;20027;-71
2022/03/04 01:32:37;;;;;;;42.53;26.55;;;;;;;;;;4942020;29;20038;-71
2022/03/04 01:35:03;;;;;;;45.70;27.58;;;;;;;;;;4940446;29;20027;-71
2022/03/04 01:37:34;;;;;;;41.53;25.73;;;;;;;;;;4943768;29;20023;-71
2022/03/04 01:40:02;;;;;;;49.60;27.58;;;;;;;;;;4958198;29;20057;-71
2022/03/04 01:42:28;;;;;;;42.53;25.40;;;;;;;;;;4942423;29;20476;-72
2022/03/04 01:44:54;;;;;;;41.63;25.92;;;;;;;;;;4958454;29;20035;-72
2022/03/04 01:47:23;;;;;;;47.97;26.50;;;;;;;;;;4957914;29;20552;-72
2022/03/04 01:49:49;;;;;;;42.08;25.90;;;;;;;;;;4959275;29;20039;-72
2022/03/04 01:52:16;;;;;;;49.17;26.85;;;;;;;;;;4959303;29;20019;-71
2022/03/04 01:54:42;;;;;;;44.55;26.58;;;;;;;;;;4958190;29;20028;-71
2022/03/04 01:57:08;;;;;;;42.13;25.52;;;;;;;;;;4953656;29;20469;-71
2022/03/04 01:59:34;;;;;;;40.28;24.55;;;;;;;;;;4957297;29;20027;-71
2022/03/04 02:02:01;;;;;;;44.63;25.88;;;;;;;;;;4958994;29;20066;-71
2022/03/04 02:04:30;;;;;;;47.28;28.95;;;;;;;;;;4945247;29;20039;-72
2022/03/04 02:06:56;;;;;;;44.50;25.17;;;;;;;;;;4945623;29;20398;-71
2022/03/04 02:09:22;;;;;;;45.40;26.73;;;;;;;;;;4948125;29;20031;-71
2022/03/04 02:11:48;;;;;;;52.75;28.13;;;;;;;;;;4960777;29;20654;-71
2022/03/04 02:14:16;;;;;;;58.55;31.67;;;;;;;;;;4958163;29;20053;-70
2022/03/04 02:16:50;;;;;;;52.65;30.52;;;;;;;;;;4953465;29;20040;-71
2022/03/04 02:19:17;;;;;;;55.83;28.98;;;;;;;;;;4934939;29;20023;-72
2022/03/04 02:21:50;;;;;;;58.00;32.63;;;;;;;;;;4960709;29;20134;-72
2022/03/04 02:24:17;;;;;;;69.15;35.30;;;;;;;;;;4962793;29;20020;-72
2022/03/04 02:26:43;;;;;;;61.50;33.65;;;;;;;;;;4962405;29;20038;-72
2022/03/04 02:29:09;;;;;;;74.40;38.65;;;;;;;;;;4962044;29;20047;-70
2022/03/04 02:31:35;;;;;;;82.65;43.50;;;;;;;;;;4948059;29;20082;-71
2022/03/04 02:34:02;;;;;;;68.70;37.92;;;;;;;;;;4939375;29;20035;-71
2022/03/04 02:36:28;;;;;;;80.75;41.88;;;;;;;;;;4957038;28;20027;-71
2022/03/04 02:38:54;;;;;;;74.07;38.95;;;;;;;;;;4957014;29;20030;-70
2022/03/04 02:41:22;;;;;;;73.20;39.80;;;;;;;;;;4956939;29;20042;-72
2022/03/04 02:43:48;;;;;;;66.85;34.50;;;;;;;;;;4958481;29;20028;-71
2022/03/04 02:46:15;;;;;;;61.35;32.95;;;;;;;;;;4959394;29;20478;-72
2022/03/04 02:48:41;;;;;;;73.07;36.13;;;;;;;;;;4958404;29;20397;-71
2022/03/04 02:51:07;;;;;;;67.90;35.75;;;;;;;;;;4956573;29;20019;-71
2022/03/04 02:53:33;;;;;;;72.70;36.53;;;;;;;;;;4939026;29;20392;-72
2022/03/04 02:55:59;;;;;;;50.20;28.63;;;;;;;;;;4947108;29;20082;-72
2022/03/04 02:58:25;;;;;;;55.45;28.58;;;;;;;;;;4937713;29;20039;-71
2022/03/04 03:00:54;;;;;;;50.38;27.27;;;;;;;;;;4940632;29;20113;-71
2022/03/04 03:03:22;;;;;;;47.40;28.23;;;;;;;;;;4957034;29;20489;-71
2022/03/04 03:05:49;;;;;;;54.10;30.95;;;;;;;;;;4956876;29;20028;-71
2022/03/04 03:08:15;;;;;;;55.53;32.67;;;;;;;;;;4956848;29;20031;-71
2022/03/04 03:10:42;;;;;;;60.90;33.65;;;;;;;;;;4954141;29;20086;-71
2022/03/04 03:13:08;;;;;;;61.53;34.08;;;;;;;;;;4954611;29;20046;-71
2022/03/04 03:15:34;;;;;;;44.80;27.48;;;;;;;;;;4939373;29;20028;-72
2022/03/04 03:18:03;;;;;;;61.70;33.30;;;;;;;;;;4956654;29;20469;-70
2022/03/04 03:20:29;;;;;;;73.35;37.08;;;;;;;;;;4956519;29;20145;-71
2022/03/04 03:22:58;;;;;;;87.10;36.03;;;;;;;;;;4932301;29;20031;-71
2022/03/04 03:25:24;;;;;;;64.35;32.53;;;;;;;;;;4941358;29;20027;-72
2022/03/04 03:27:54;;;;;;;54.42;30.23;;;;;;;;;;4945832;29;20071;-70
2022/03/04 03:30:20;;;;;;;56.90;29.42;;;;;;;;;;4957755;29;20031;-72
2022/03/04 03:32:46;;;;;;;44.75;26.95;;;;;;;;;;4954673;29;20051;-71
2022/03/04 03:35:12;;;;;;;41.85;24.80;;;;;;;;;;4957007;29;20033;-71
2022/03/04 03:37:38;;;;;;;45.22;26.75;;;;;;;;;;4957247;29;20027;-72
2022/03/04 03:40:10;;;;;;;52.30;27.92;;;;;;;;;;4943292;29;20028;-71
2022/03/04 03:42:36;;;;;;;49.17;27.00;;;;;;;;;;4961898;29;20034;-71
2022/03/04 03:45:03;;;;;;;46.63;27.92;;;;;;;;;;4955758;29;20023;-71
2022/03/04 03:47:30;;;;;;;51.50;27.40;;;;;;;;;;4937990;29;20031;-70
2022/03/04 03:49:56;;;;;;;41.92;26.10;;;;;;;;;;4954668;28;20035;-71
2022/03/04 03:52:22;;;;;;;46.35;27.42;;;;;;;;;;4951787;29;20019;-71
2022/03/04 03:54:48;;;;;;;45.28;26.92;;;;;;;;;;4940996;29;20027;-72
2022/03/04 03:57:14;;;;;;;49.38;28.55;;;;;;;;;;4942343;29;20027;-72
2022/03/04 03:59:41;;;;;;;48.13;28.08;;;;;;;;;;4942061;29;20035;-72
2022/03/04 04:02:07;;;;;;;50.03;28.02;;;;;;;;;;4942328;29;20058;-72
2022/03/04 04:04:36;;;;;;;48.88;27.55;;;;;;;;;;4941341;29;20049;-71
2022/03/04 04:07:08;;;;;;;47.58;26.67;;;;;;;;;;4937384;29;20425;-70
2022/03/04 04:09:34;;;;;;;44.80;27.15;;;;;;;;;;4955952;29;20039;-71
2022/03/04 04:12:00;;;;;;;46.72;27.88;;;;;;;;;;4938626;29;20441;-72
2022/03/04 04:14:27;;;;;;;46.10;27.73;;;;;;;;;;4955670;29;20102;-71
2022/03/04 04:16:53;;;;;;;47.10;28.92;;;;;;;;;;4953973;29;20034;-71
2022/03/04 04:19:20;;;;;;;51.95;28.13;;;;;;;;;;4955814;29;20107;-71
2022/03/04 04:21:46;;;;;;;45.35;27.83;;;;;;;;;;4935631;29;20051;-72
2022/03/04 04:24:12;;;;;;;51.67;29.17;;;;;;;;;;4936492;29;20052;-71
2022/03/04 04:26:38;;;;;;;51.55;28.98;;;;;;;;;;4934867;29;20039;-70
2022/03/04 04:29:04;;;;;;;54.33;30.33;;;;;;;;;;4936050;29;20485;-71
2022/03/04 04:31:32;;;;;;;48.58;27.17;;;;;;;;;;4930404;29;20032;-71
2022/03/04 04:33:59;;;;;;;44.20;25.77;;;;;;;;;;4921304;29;20068;-72
2022/03/04 04:36:25;;;;;;;48.33;26.88;;;;;;;;;;4920406;29;20027;-71
2022/03/04 04:38:52;;;;;;;45.83;27.50;;;;;;;;;;4916599;29;20040;-71
2022/03/04 04:41:18;;;;;;;44.78;26.92;;;;;;;;;;4935640;29;20027;-71
2022/03/04 04:43:45;;;;;;;52.63;28.27;;;;;;;;;;4935906;29;20028;-70
2022/03/04 04:46:11;;;;;;;62.08;33.60;;;;;;;;;;4936068;29;20051;-71
2022/03/04 04:48:37;;;;;;;57.78;31.67;;;;;;;;;;4925649;29;20095;-71
2022/03/04 04:51:04;;;;;;;60.15;33.55;;;;;;;;;;4918026;29;20104;-71
2022/03/04 04:53:32;;;;;;;58.70;33.08;;;;;;;;;;4900353;29;20581;-71
2022/03/04 04:55:58;;;;;;;59.05;31.13;;;;;;;;;;4917437;29;20098;-71
2022/03/04 04:58:27;;;;;;;60.92;31.17;;;;;;;;;;4919554;29;20039;-72
2022/03/04 05:00:54;;;;;;;55.97;30.77;;;;;;;;;;4935033;29;20035;-71
2022/03/04 05:03:24;;;;;;;60.15;30.95;;;;;;;;;;4923079;29;20028;-71
2022/03/04 05:05:50;;;;;;;53.47;31.38;;;;;;;;;;4922947;29;20032;-72
2022/03/04 05:08:17;;;;;;;47.55;28.15;;;;;;;;;;4936202;29;20489;-71
2022/03/04 05:10:43;;;;;;;51.55;27.25;;;;;;;;;;4927462;29;20036;-71
2022/03/04 05:13:10;;;;;;;49.88;28.48;;;;;;;;;;4923329;29;20035;-71
2022/03/04 05:15:36;;;;;;;49.85;28.45;;;;;;;;;;4922924;29;20538;-71
2022/03/04 05:18:02;;;;;;;49.13;29.70;;;;;;;;;;4922939;29;20565;-71
2022/03/04 05:20:28;;;;;;;54.33;30.67;;;;;;;;;;4925378;29;20039;-71
2022/03/04 05:22:54;;;;;;;62.40;31.80;;;;;;;;;;4952639;29;20493;-71
2022/03/04 05:25:20;;;;;;;54.58;31.48;;;;;;;;;;4961238;28;20153;-71
2022/03/04 05:27:47;;;;;;;59.58;31.00;;;;;;;;;;4948958;29;20501;-71
2022/03/04 05:30:13;;;;;;;58.65;30.45;;;;;;;;;;4942691;29;20544;-70
2022/03/04 05:32:40;;;;;;;55.55;30.63;;;;;;;;;;4960065;28;20031;-71
2022/03/04 05:35:06;;;;;;;57.15;30.83;;;;;;;;;;4959656;29;20066;-70
2022/03/04 05:37:33;;;;;;;57.53;32.13;;;;;;;;;;4960721;28;20027;-71
2022/03/04 05:40:01;;;;;;;54.25;31.50;;;;;;;;;;4928490;28;20580;-71
2022/03/04 05:42:27;;;;;;;51.30;30.15;;;;;;;;;;4943502;29;20118;-71
2022/03/04 05:44:54;;;;;;;56.33;30.95;;;;;;;;;;4944962;29;20042;-71
2022/03/04 05:47:22;;;;;;;57.85;31.50;;;;;;;;;;4963491;29;20472;-71
2022/03/04 05:49:48;;;;;;;57.63;32.50;;;;;;;;;;4942156;29;20031;-71
2022/03/04 05:52:14;;;;;;;54.53;30.92;;;;;;;;;;4948446;29;20388;-71
2022/03/04 05:54:43;;;;;;;56.78;33.13;;;;;;;;;;4961120;29;20026;-71
2022/03/04 05:57:09;;;;;;;52.75;31.90;;;;;;;;;;4959964;28;20115;-70
2022/03/04 05:59:37;;;;;;;57.85;33.17;;;;;;;;;;4959241;29;20028;-71
2022/03/04 06:02:03;;;;;;;56.67;31.98;;;;;;;;;;4952946;29;20027;-76
2022/03/04 06:04:29;;;;;;;147.50;72.15;;;;;;;;;;4960088;28;20037;-71
2022/03/04 06:06:55;;;;;;;64.32;38.15;;;;;;;;;;4960948;28;20031;-71
2022/03/04 06:09:27;;;;;;;58.97;34.28;;;;;;;;;;4965269;29;20043;-74
2022/03/04 06:11:57;;;;;;;71.43;38.15;;;;;;;;;;4961775;28;20036;-74
2022/03/04 06:14:23;;;;;;;65.43;36.35;;;;;;;;;;4957170;29;20031;-74
2022/03/04 06:16:49;;;;;;;66.32;37.78;;;;;;;;;;4956757;29;20027;-73
2022/03/04 06:19:15;;;;;;;69.88;39.88;;;;;;;;;;4958801;29;20077;-75
2022/03/04 06:21:41;;;;;;;84.75;42.13;;;;;;;;;;4933438;29;20306;-71
2022/03/04 06:24:07;;;;;;;71.63;39.97;;;;;;;;;;4941868;29;20028;-70
2022/03/04 06:26:35;;;;;;;73.68;40.65;;;;;;;;;;4956844;29;20054;-71
2022/03/04 06:29:01;;;;;;;63.38;37.15;;;;;;;;;;4956754;28;20539;-70
2022/03/04 06:31:27;;;;;;;65.03;37.30;;;;;;;;;;4956594;29;20035;-72
2022/03/04 06:33:53;;;;;;;62.47;38.05;;;;;;;;;;4955299;29;20023;-72
2022/03/04 06:36:21;;;;;;;61.22;36.88;;;;;;;;;;4955996;29;20028;-69
2022/03/04 06:38:50;;;;;;;58.58;38.40;;;;;;;;;;4955429;29;20598;-70
2022/03/04 06:41:16;;;;;;;68.95;44.90;;;;;;;;;;4957379;29;20478;-75
2022/03/04 06:43:43;;;;;;;87.55;52.92;;;;;;;;;;4942773;29;20509;-75
2022/03/04 06:46:10;;;;;;;60.33;38.22;;;;;;;;;;4953582;29;20039;-75
2022/03/04 06:48:36;;;;;;;55.40;37.65;;;;;;;;;;4965272;29;20055;-77
2022/03/04 06:51:03;;;;;;;58.22;38.38;;;;;;;;;;4963827;29;20884;-77
2022/03/04 06:53:29;;;;;;;55.00;36.05;;;;;;;;;;4957534;29;20016;-75
2022/03/04 06:55:55;;;;;;;50.72;34.20;;;;;;;;;;4951550;29;20031;-77
2022/03/04 06:58:24;;;;;;;53.03;35.05;;;;;;;;;;4968700;29;20027;-76
2022/03/04 07:00:50;;;;;;;51.08;33.97;;;;;;;;;;4943271;29;20035;-77
2022/03/04 07:03:16;;;;;;;55.38;39.65;;;;;;;;;;4968054;29;20028;-71
2022/03/04 07:05:43;;;;;;;54.38;37.47;;;;;;;;;;4940857;29;20087;-75
2022/03/04 07:08:13;;;;;;;56.35;37.75;;;;;;;;;;4965099;29;20082;-70
2022/03/04 07:11:15;;;;;;;59.22;38.35;;;;;;;;;;4972350;29;20074;-73
2022/03/04 07:13:53;;;;;;;53.10;35.53;;;;;;;;;;4948904;29;20034;-72
2022/03/04 07:16:27;;;;;;;48.22;34.40;;;;;;;;;;4925311;29;20026;-76
2022/03/04 07:18:53;;;;;;;;;;;;;;;;;;4923132;29;20043;-71
2022/03/04 07:21:19;;;;;;;48.90;33.80;;;;;;;;;;4953098;29;19925;-72
2022/03/04 07:23:46;;;;;;;52.08;36.35;;;;;;;;;;4955842;29;20036;-77
2022/03/04 07:26:40;;;;;;;50.72;33.95;;;;;;;;;;4979744;28;20055;-76
2022/03/04 07:29:10;;;;;;;47.38;33.47;;;;;;;;;;4931628;29;20076;-77
2022/03/04 07:31:37;;;;;;;64.70;41.17;;;;;;;;;;4931264;29;20036;-78
2022/03/04 07:34:24;;;;;;;47.03;35.80;;;;;;;;;;4917326;29;20024;-77
2022/03/04 07:37:03;;;;;;;48.50;33.28;;;;;;;;;;4872736;29;20204;-78
2022/03/04 07:39:52;;;;;;;52.13;36.17;;;;;;;;;;4917892;29;20530;-78
2022/03/04 07:42:41;;;;;;;48.08;32.03;;;;;;;;;;4935881;29;20046;-77
2022/03/04 07:45:10;;;;;;;60.40;39.40;;;;;;;;;;5361477;23;20076;-76
2022/03/04 07:47:37;;;;;;;69.50;44.47;;;;;;;;;;4952706;29;20094;-76
2022/03/04 07:50:34;;;;;;;56.63;40.42;;;;;;;;;;4948339;29;20410;-77
2022/03/04 07:53:07;;;;;;;45.78;33.55;;;;;;;;;;4922380;29;20117;-82
2022/03/04 07:55:33;;;;;;;51.28;34.42;;;;;;;;;;4920390;29;20054;-76
2022/03/04 07:57:59;;;;;;;46.20;33.70;;;;;;;;;;4927924;29;20035;-76
2022/03/04 08:00:26;;;;;;;45.15;33.80;;;;;;;;;;4940745;29;20385;-76
2022/03/04 08:02:53;;;;;;;46.70;32.40;;;;;;;;;;4943899;29;20015;-73
2022/03/04 08:05:19;;;;;;;46.00;34.58;;;;;;;;;;4920655;29;20402;-72
2022/03/04 08:07:45;;;;;;;44.25;32.97;;;;;;;;;;4933799;29;20095;-78
2022/03/04 08:10:12;;;;;;;51.28;37.35;;;;;;;;;;4929882;29;20028;-83
2022/03/04 08:12:38;;;;;;;45.67;33.97;;;;;;;;;;4935760;29;20045;-78
2022/03/04 08:15:05;;;;;;;47.42;31.75;;;;;;;;;;4923076;29;20036;-86
2022/03/04 08:17:31;;;;;;;45.40;33.03;;;;;;;;;;4918187;29;20584;-77
2022/03/04 08:19:57;;;;;;;43.85;33.45;;;;;;;;;;4934224;29;20114;-86
2022/03/04 08:22:23;;;;;;;47.90;34.05;;;;;;;;;;4935002;29;20031;-85
2022/03/04 08:24:49;;;;;;;43.63;33.83;;;;;;;;;;4935507;29;20031;-81
2022/03/04 08:27:15;;;;;;;44.33;32.70;;;;;;;;;;4934073;29;20486;-85
2022/03/04 08:29:42;;;;;;;48.30;34.45;;;;;;;;;;4934664;29;20036;-89
2022/03/04 08:32:08;;;;;;;48.95;35.45;;;;;;;;;;4919103;29;20510;-86
2022/03/04 08:34:37;;;;;;;49.65;36.13;;;;;;;;;;4922174;29;20103;-80
2022/03/04 08:37:03;;;;;;;51.72;35.22;;;;;;;;;;4924393;29;20459;-80
2022/03/04 08:39:32;;;;;;;49.58;35.30;;;;;;;;;;4935778;29;20023;-78
2022/03/04 08:41:58;;;;;;;49.70;37.22;;;;;;;;;;4918262;29;20135;-76
2022/03/04 08:44:24;;;;;;;49.55;35.00;;;;;;;;;;4935300;29;20122;-83
2022/03/04 08:49:57;;;;;;;49.92;35.90;;;;;;;;;;4938028;29;20051;-73
2022/03/04 08:52:23;;;;;;;55.35;38.42;;;;;;;;;;4936203;29;20038;-73
2022/03/04 08:54:49;;;;;;;50.63;36.38;;;;;;;;;;4934368;29;20079;-73
2022/03/04 08:57:15;;;;;;;49.35;36.00;;;;;;;;;;4935308;29;20035;-77
2022/03/04 08:59:41;;;;;;;52.22;36.28;;;;;;;;;;4931189;29;20497;-74
2022/03/04 09:02:07;;;;;;;46.40;35.03;;;;;;;;;;4935811;29;20040;-74
2022/03/04 09:04:33;;;;;;;47.88;34.55;;;;;;;;;;4919407;29;20478;-74
2022/03/04 09:06:59;;;;;;;51.15;35.45;;;;;;;;;;4934455;29;20122;-75
2022/03/04 09:09:26;;;;;;;50.47;35.05;;;;;;;;;;4937454;29;20154;-78
2022/03/04 09:11:53;;;;;;;52.97;36.40;;;;;;;;;;4953056;29;20027;-77
2022/03/04 09:14:23;;;;;;;51.15;35.67;;;;;;;;;;4948854;29;20110;-77
2022/03/04 09:16:55;;;;;;;57.20;37.05;;;;;;;;;;4947110;29;20048;-77
2022/03/04 09:19:49;;;;;;;56.10;38.17;;;;;;;;;;4939976;29;20036;-75
2022/03/04 09:22:25;;;;;;;60.03;37.85;;;;;;;;;;4946026;29;20023;-73
2022/03/04 09:24:51;;;;;;;74.00;35.33;;;;;;;;;;4944648;29;20082;-75
2022/03/04 09:27:17;;;;;;;93.95;35.33;;;;;;;;;;4938226;29;20518;-74
2022/03/04 09:29:43;;;;;;;66.57;33.20;;;;;;;;;;4940751;29;20375;-75
2022/03/04 09:32:09;;;;;;;47.53;32.42;;;;;;;;;;4938398;29;20106;-76
2022/03/04 09:34:36;;;;;;;56.78;38.03;;;;;;;;;;4938732;29;20038;-72
2022/03/04 09:37:02;;;;;;;66.85;39.47;;;;;;;;;;4939293;29;20053;-76
2022/03/04 09:39:28;;;;;;;53.75;34.13;;;;;;;;;;4944888;29;20042;-78
2022/03/04 09:41:55;;;;;;;63.88;34.33;;;;;;;;;;4943389;29;20047;-77
2022/03/04 09:44:21;;;;;;;73.68;35.60;;;;;;;;;;4928558;29;20024;-75
2022/03/04 09:46:49;;;;;;;49.67;33.25;;;;;;;;;;4900039;29;20422;-73
2022/03/04 09:49:16;;;;;;;57.05;35.08;;;;;;;;;;4923795;29;20619;-74
2022/03/04 09:51:42;;;;;;;56.90;34.97;;;;;;;;;;4939113;29;20038;-72
2022/03/04 09:54:08;;;;;;;55.83;35.05;;;;;;;;;;4939683;29;20421;-71
2022/03/04 09:56:35;;;;;;;56.08;36.95;;;;;;;;;;4938420;29;20051;-71
2022/03/04 09:59:01;;;;;;;60.05;36.65;;;;;;;;;;4925904;29;20035;-70
2022/03/04 10:01:27;;;;;;;56.70;36.70;;;;;;;;;;4926208;29;20020;-73
2022/03/04 10:03:54;;;;;;;50.33;33.55;;;;;;;;;;4921486;29;20081;-71
2022/03/04 10:06:21;;;;;;;51.80;33.75;;;;;;;;;;4918796;29;20414;-70
2022/03/04 10:08:51;;;;;;;54.28;33.15;;;;;;;;;;4920607;29;20033;-72
2022/03/04 10:11:25;;;;;;;56.55;37.55;;;;;;;;;;4924273;29;20123;-70
2022/03/04 10:13:53;;;;;;;59.65;36.53;;;;;;;;;;4920482;29;20107;-71
2022/03/04 10:16:27;;;;;;;54.67;35.60;;;;;;;;;;4919673;29;20047;-71
2022/03/04 10:19:11;;;;;;;56.55;36.80;;;;;;;;;;4919158;29;20032;-71
2022/03/04 10:21:44;;;;;;;52.80;36.17;;;;;;;;;;4921850;29;20027;-72
2022/03/04 10:24:10;;;;;;;61.90;39.08;;;;;;;;;;4923697;29;20051;-70
2022/03/04 10:26:37;;;;;;;50.55;33.47;;;;;;;;;;4920405;29;20053;-71
2022/03/04 10:29:22;;;;;;;52.53;33.03;;;;;;;;;;4927636;29;20043;-71
2022/03/04 10:32:07;;;;;;;57.70;35.80;;;;;;;;;;4922190;29;20111;-71
2022/03/04 10:34:52;;;;;;;52.45;33.60;;;;;;;;;;4916558;29;20390;-71
2022/03/04 10:37:19;;;;;;;55.60;34.85;;;;;;;;;;4922615;29;20107;-70
2022/03/04 10:40:04;;;;;;;59.67;36.40;;;;;;;;;;4919988;29;20031;-72
2022/03/04 10:42:43;;;;;;;49.83;31.60;;;;;;;;;;4919438;29;20447;-72
2022/03/04 10:45:11;;;;;;;55.58;33.83;;;;;;;;;;4917295;29;20024;-72
2022/03/04 10:47:49;;;;;;;48.92;31.27;;;;;;;;;;4917402;29;20038;-72
2022/03/04 10:50:16;;;;;;;69.03;39.88;;;;;;;;;;4917662;29;20036;-72
2022/03/04 10:52:51;;;;;;;63.58;35.85;;;;;;;;;;4926358;29;20028;-74
2022/03/04 10:55:31;;;;;;;76.75;43.13;;;;;;;;;;4931429;29;20034;-72
2022/03/04 10:58:01;;;;;;;46.67;29.65;;;;;;;;;;4938089;29;20028;-73
2022/03/04 11:00:37;;;;;;;47.50;30.73;;;;;;;;;;4937502;29;20024;-72
2022/03/04 11:03:06;;;;;;;57.10;34.40;;;;;;;;;;4937106;29;20086;-72
2022/03/04 11:05:32;;;;;;;56.88;33.72;;;;;;;;;;4937305;29;20151;-73
2022/03/04 11:07:59;;;;;;;57.70;29.73;;;;;;;;;;4937286;29;20032;-72
2022/03/04 11:10:25;;;;;;;47.17;29.58;;;;;;;;;;4937144;29;20039;-72
2022/03/04 11:12:53;;;;;;;102.22;60.03;;;;;;;;;;4937180;29;20088;-74
2022/03/04 11:15:23;;;;;;;57.75;34.25;;;;;;;;;;4918142;29;20039;-72
2022/03/04 11:17:49;;;;;;;62.97;37.50;;;;;;;;;;4930244;29;20031;-75
2022/03/04 11:20:15;;;;;;;50.33;29.83;;;;;;;;;;4937216;29;20020;-72
2022/03/04 11:22:43;;;;;;;56.00;31.75;;;;;;;;;;4937679;29;20382;-74
2022/03/04 11:25:12;;;;;;;50.13;31.27;;;;;;;;;;4934329;29;20751;-72
2022/03/04 11:27:48;;;;;;;47.20;28.75;;;;;;;;;;4937457;29;20114;-73
2022/03/04 11:30:28;;;;;;;50.33;29.88;;;;;;;;;;4937923;29;20390;-72
2022/03/04 11:33:13;;;;;;;47.60;28.77;;;;;;;;;;4939469;29;20028;-71
2022/03/04 11:35:49;;;;;;;45.53;29.05;;;;;;;;;;4939500;29;20111;-73
2022/03/04 11:38:16;;;;;;;48.42;30.15;;;;;;;;;;4927359;29;20391;-78
2022/03/04 11:40:50;;;;;;;50.08;29.70;;;;;;;;;;4949409;29;20031;-77
2022/03/04 11:43:39;;;;;;;44.35;27.75;;;;;;;;;;4947743;29;20031;-74
2022/03/04 11:46:05;;;;;;;45.00;28.27;;;;;;;;;;4940115;29;20048;-74
2022/03/04 11:48:32;;;;;;;49.80;31.95;;;;;;;;;;4931483;29;20036;-77
2022/03/04 11:50:58;;;;;;;41.60;27.77;;;;;;;;;;4940771;29;20039;-72
2022/03/04 11:53:25;;;;;;;47.25;29.20;;;;;;;;;;4953274;29;20032;-74
2022/03/04 11:56:11;;;;;;;44.75;29.80;;;;;;;;;;4931089;29;20414;-72
2022/03/04 11:58:57;;;;;;;48.03;31.30;;;;;;;;;;4941050;29;20024;-71
2022/03/04 12:01:27;;;;;;;45.88;28.90;;;;;;;;;;4940567;29;20059;-71
2022/03/04 12:04:07;;;;;;;43.42;27.23;;;;;;;;;;4939329;29;20028;-71
2022/03/04 12:06:33;;;;;;;41.10;27.23;;;;;;;;;;4934754;29;20086;-71
2022/03/04 12:09:19;;;;;;;43.40;27.85;;;;;;;;;;4941346;29;20043;-72
2022/03/04 12:12:03;;;;;;;55.15;37.05;;;;;;;;;;4937547;29;20115;-70
2022/03/04 12:14:29;;;;;;;46.38;29.60;;;;;;;;;;4934393;29;20046;-72
2022/03/04 12:16:56;;;;;;;46.10;31.73;;;;;;;;;;4939607;29;20028;-71
2022/03/04 12:19:35;;;;;;;44.05;29.20;;;;;;;;;;4929804;29;20040;-72
2022/03/04 12:22:01;;;;;;;40.03;26.08;;;;;;;;;;4937707;29;20036;-72
2022/03/04 12:24:35;;;;;;;39.25;25.90;;;;;;;;;;4945588;29;20046;-71
2022/03/04 12:27:02;;;;;;;48.05;27.90;;;;;;;;;;4940592;29;20032;-71
2022/03/04 12:29:44;;;;;;;41.83;30.08;;;;;;;;;;4942854;29;20142;-71
2022/03/04 12:32:10;;;;;;;44.22;29.48;;;;;;;;;;4945044;29;20043;-72
2022/03/04 12:34:41;;;;;;;42.42;27.65;;;;;;;;;;4948745;29;20028;-72
2022/03/04 12:37:15;;;;;;;40.10;29.88;;;;;;;;;;4921343;29;20036;-73
2022/03/04 12:39:46;;;;;;;;;;;;;;;;;;4942222;29;20051;-77
2022/03/04 12:42:13;;;;;;;37.85;24.48;;;;;;;;;;4946645;29;19898;-77
2022/03/04 12:44:43;;;;;;;38.17;25.77;;;;;;;;;;4948417;28;20047;-74
2022/03/04 12:47:26;;;;;;;37.90;24.60;;;;;;;;;;4952231;29;20150;-77
2022/03/04 12:49:57;;;;;;;;;;;;;;;;;;4934894;29;20052;-77
2022/03/04 12:52:24;;;;;;;38.20;25.65;;;;;;;;;;4908997;29;19922;-73
2022/03/04 12:54:50;;;;;;;40.25;28.38;;;;;;;;;;4932210;29;20040;-70
2022/03/04 12:57:19;;;;;;;41.45;21.75;;;;;;;;;;4941081;29;20028;-78
2022/03/04 12:59:46;;;;;;;29.65;20.42;;;;;;;;;;4917159;29;20030;-72
2022/03/04 13:02:12;;;;;;;30.15;20.25;;;;;;;;;;4940408;29;20382;-71
2022/03/04 13:04:38;;;;;;;33.40;21.50;;;;;;;;;;4940906;29;20027;-76
2022/03/04 13:07:05;;;;;;;28.38;19.10;;;;;;;;;;4958173;28;20039;-75
2022/03/04 13:09:36;;;;;;;30.27;19.50;;;;;;;;;;4957258;28;20043;-78
2022/03/04 13:12:03;;;;;;;29.02;17.30;;;;;;;;;;4939532;29;20063;-74
2022/03/04 13:14:32;;;;;;;28.77;17.75;;;;;;;;;;4935260;29;20031;-76
2022/03/04 13:16:58;;;;;;;22.30;14.80;;;;;;;;;;4936431;29;20020;-68
2022/03/04 13:19:25;;;;;;;29.30;16.52;;;;;;;;;;4935140;29;20426;-70
2022/03/04 13:21:59;;;;;;;22.25;15.35;;;;;;;;;;4937605;29;20086;-70
2022/03/04 13:24:26;;;;;;;;;;;;;;;;;;4939261;29;20035;-76
2022/03/04 13:27:04;;;;;;;23.17;15.77;;;;;;;;;;4938790;29;19911;-74
2022/03/04 13:29:31;;;;;;;20.40;13.48;;;;;;;;;;4938577;29;20040;-76
2022/03/04 13:32:16;;;;;;;24.15;16.42;;;;;;;;;;4922926;29;20042;-75
2022/03/04 13:34:44;;;;;;;24.70;16.95;;;;;;;;;;4940206;29;20035;-76
2022/03/04 13:37:10;;;;;;;24.65;16.38;;;;;;;;;;4936907;29;20070;-75
2022/03/04 13:39:44;;;;;;;26.30;15.88;;;;;;;;;;4939744;29;20020;-75
2022/03/04 13:42:11;;;;;;;24.67;16.38;;;;;;;;;;4927671;29;20482;-76
2022/03/04 13:44:52;;;;;;;20.50;14.43;;;;;;;;;;4920830;29;20032;-73
2022/03/04 13:47:28;;;;;;;18.10;13.63;;;;;;;;;;4914810;29;20146;-72
2022/03/04 13:49:54;;;;;;;25.02;15.30;;;;;;;;;;4914281;29;20040;-73
2022/03/04 13:52:20;;;;;;;22.20;15.13;;;;;;;;;;4929702;29;20020;-74
2022/03/04 13:55:06;;;;;;;20.80;14.55;;;;;;;;;;4943914;29;20027;-75
2022/03/04 13:57:40;;;;;;;23.08;16.38;;;;;;;;;;4869410;29;20022;-74
2022/03/04 14:00:19;;;;;;;23.38;16.45;;;;;;;;;;4867484;29;20196;-75
2022/03/04 14:02:46;;;;;;;29.15;17.70;;;;;;;;;;4863443;29;20028;-75
2022/03/04 14:05:32;;;;;;;27.58;18.08;;;;;;;;;;4869822;29;20061;-75
2022/03/04 14:08:13;;;;;;;29.30;19.40;;;;;;;;;;4868017;29;20081;-75
2022/03/04 14:10:43;;;;;;;22.60;14.55;;;;;;;;;;4857176;29;20492;-75
2022/03/04 14:13:10;;;;;;;27.27;18.10;;;;;;;;;;4835978;29;20039;-73
2022/03/04 14:15:40;;;;;;;28.88;17.33;;;;;;;;;;4827559;29;20046;-69
2022/03/04 14:18:08;;;;;;;26.35;17.63;;;;;;;;;;4835151;29;20043;-68
2022/03/04 14:20:35;;;;;;;28.40;17.23;;;;;;;;;;4827140;29;20142;-72
2022/03/04 14:23:03;;;;;;;27.90;16.02;;;;;;;;;;4823657;29;20034;-74
2022/03/04 14:25:29;;;;;;;26.38;17.83;;;;;;;;;;4823213;29;20173;-74
2022/03/04 14:27:55;;;;;;;25.58;18.02;;;;;;;;;;4812475;29;20050;-75
2022/03/04 14:30:28;;;;;;;31.65;18.70;;;;;;;;;;4833029;29;20455;-76
2022/03/04 14:35:57;;;;;;;27.02;19.00;;;;;;;;;;4910348;29;20226;-78